Time;durP1;ratioP1;P1;durP2;ratioP2;P2;SDS_P1;SDS_P2;PMS_P1;PMS_P2;Temp;Humidity;BMP_temperature;BMP_pressure;BME280_temperature;BME280_humidity;BME280_pressure;Samples;Min_cycle;Max_cycle;Signal;HPM_P1;HPM_P2
2021/04/30 00:08:54;;;;;;;17.00;9.57;;;5.50;99.90;;;;;;6643282;89;21144;-76
2021/04/30 00:18:54;;;;;;;14.00;9.25;;;5.50;99.90;;;;;;6644633;89;20245;-76
2021/04/30 00:28:55;;;;;;;17.48;9.00;;;5.40;99.90;;;;;;6648438;89;20740;-75
2021/04/30 00:38:56;;;;;;;15.07;9.07;;;5.40;99.90;;;;;;6644359;89;20316;-75
2021/04/30 00:48:56;;;;;;;15.73;9.88;;;5.30;99.90;;;;;;6642145;89;20185;-75
2021/04/30 00:58:57;;;;;;;16.70;8.70;;;5.20;99.90;;;;;;6638286;89;20358;-74
2021/04/30 01:08:58;;;;;;;17.15;9.57;;;5.20;99.90;;;;;;6647792;89;20504;-75
2021/04/30 01:18:58;;;;;;;15.75;8.35;;;5.00;99.90;;;;;;6643103;89;20199;-75
2021/04/30 01:28:59;;;;;;;15.85;8.68;;;5.00;99.90;;;;;;6642496;89;20225;-75
2021/04/30 01:39:02;;;;;;;16.12;8.18;;;5.00;99.90;;;;;;6643880;89;20250;-75
2021/04/30 01:49:04;;;;;;;15.77;8.05;;;4.90;99.90;;;;;;6639163;88;20188;-74
2021/04/30 01:59:05;;;;;;;16.10;8.35;;;4.90;99.90;;;;;;6641124;89;20217;-75
2021/04/30 02:09:08;;;;;;;13.50;8.88;;;4.90;99.90;;;;;;6650926;89;20786;-75
2021/04/30 02:19:09;;;;;;;16.17;8.80;;;4.90;99.90;;;;;;6646065;89;20337;-75
2021/04/30 02:29:09;;;;;;;16.73;9.00;;;4.90;99.90;;;;;;6646166;89;20832;-74
2021/04/30 02:39:10;;;;;;;16.12;9.27;;;4.80;99.90;;;;;;6643682;89;20307;-75
2021/04/30 02:49:14;;;;;;;15.20;9.10;;;4.80;99.90;;;;;;6646280;89;20301;-75
2021/04/30 02:59:15;;;;;;;18.37;9.40;;;4.80;99.90;;;;;;6644491;89;20288;-74
2021/04/30 03:09:16;;;;;;;15.43;8.73;;;5.00;99.90;;;;;;6641612;89;20349;-74
2021/04/30 03:19:16;;;;;;;14.82;8.43;;;5.00;99.90;;;;;;6640675;89;20192;-75
2021/04/30 03:29:17;;;;;;;17.55;9.05;;;5.00;99.90;;;;;;6643282;89;20173;-75
2021/04/30 03:39:17;;;;;;;14.82;8.40;;;5.10;99.90;;;;;;6640815;89;20255;-75
2021/04/30 03:49:18;;;;;;;14.90;8.90;;;5.10;99.90;;;;;;6640133;89;20181;-76
2021/04/30 03:59:18;;;;;;;14.48;9.48;;;5.30;99.90;;;;;;6639739;89;20539;-75
2021/04/30 04:09:19;;;;;;;18.52;8.75;;;5.30;99.90;;;;;;6640058;89;20634;-76
2021/04/30 04:19:21;;;;;;;17.25;8.15;;;5.30;99.90;;;;;;6641350;89;20825;-75
2021/04/30 04:29:21;;;;;;;14.18;9.30;;;5.40;99.90;;;;;;6638537;89;20266;-76
2021/04/30 04:39:22;;;;;;;18.85;9.80;;;5.50;99.90;;;;;;6638493;89;20230;-76
2021/04/30 04:49:23;;;;;;;19.50;8.82;;;5.60;99.90;;;;;;6640104;78;20199;-76
2021/04/30 04:59:24;;;;;;;16.95;8.07;;;5.80;99.90;;;;;;6612457;89;20324;-75
2021/04/30 05:09:24;;;;;;;16.83;9.05;;;5.90;99.90;;;;;;6611773;89;20227;-76
2021/04/30 05:19:25;;;;;;;18.70;9.17;;;5.90;99.90;;;;;;6608972;89;20246;-76
2021/04/30 05:29:25;;;;;;;18.65;9.15;;;6.00;99.90;;;;;;6613835;89;20550;-76
2021/04/30 05:39:26;;;;;;;17.77;8.95;;;6.10;99.90;;;;;;6614392;89;20241;-76
2021/04/30 05:49:27;;;;;;;15.48;9.02;;;6.20;99.90;;;;;;6615807;89;20202;-76
2021/04/30 05:59:27;;;;;;;16.48;9.05;;;6.20;99.90;;;;;;6620273;89;20210;-76
2021/04/30 06:09:29;;;;;;;16.58;8.60;;;6.30;99.90;;;;;;6617451;89;20285;-78
2021/04/30 06:19:30;;;;;;;20.00;9.50;;;6.60;99.90;;;;;;6612201;89;20177;-76
2021/04/30 06:29:31;;;;;;;17.95;9.75;;;6.80;99.90;;;;;;6613957;89;21036;-75
2021/04/30 06:39:31;;;;;;;17.85;9.52;;;6.90;99.90;;;;;;6609349;88;20222;-77
2021/04/30 06:49:32;;;;;;;16.62;9.63;;;7.10;99.90;;;;;;6617956;89;20194;-77
2021/04/30 06:59:33;;;;;;;19.77;10.10;;;7.20;99.90;;;;;;6630412;89;20327;-75
2021/04/30 07:09:33;;;;;;;18.30;10.50;;;7.20;99.90;;;;;;6635466;88;21129;-75
2021/04/30 07:19:34;;;;;;;15.80;9.40;;;7.30;99.90;;;;;;6618901;88;20251;-76
2021/04/30 07:29:35;;;;;;;17.37;9.68;;;7.50;99.90;;;;;;6613013;89;20189;-76
2021/04/30 07:39:36;;;;;;;14.90;8.88;;;7.50;99.90;;;;;;6610619;89;20288;-76
2021/04/30 07:49:36;;;;;;;17.27;9.23;;;7.70;99.90;;;;;;6609620;89;20761;-75
2021/04/30 07:59:37;;;;;;;21.92;9.07;;;7.80;99.90;;;;;;6606902;88;20199;-76
2021/04/30 08:09:38;;;;;;;16.60;8.80;;;8.00;99.90;;;;;;6614339;89;20205;-77
2021/04/30 08:19:38;;;;;;;18.25;9.15;;;8.40;99.90;;;;;;6608447;89;20190;-76
2021/04/30 08:29:39;;;;;;;17.90;9.00;;;8.50;99.90;;;;;;6611582;89;20384;-76
2021/04/30 08:39:41;;;;;;;16.40;8.63;;;8.60;99.90;;;;;;6611631;89;20215;-76
2021/04/30 08:49:41;;;;;;;14.63;9.20;;;8.60;99.90;;;;;;6612168;89;20337;-76
2021/04/30 08:59:42;;;;;;;16.30;8.82;;;8.70;99.90;;;;;;6615267;89;20224;-76
2021/04/30 09:10:09;;;;;;;19.90;9.27;;;9.40;99.90;;;;;;6613308;89;20656;-76
2021/04/30 09:20:10;;;;;;;21.05;10.85;;;9.80;99.90;;;;;;6612308;89;20194;-76
2021/04/30 09:30:28;;;;;;;17.50;8.38;;;10.10;99.90;;;;;;6611781;89;20207;-76
2021/04/30 09:40:31;;;;;;;19.85;9.82;;;11.30;99.90;;;;;;6619689;89;20971;-77
2021/04/30 09:50:33;;;;;;;19.35;9.88;;;11.70;99.90;;;;;;6614745;89;20253;-75
2021/04/30 10:00:33;;;;;;;16.12;9.88;;;11.80;99.90;;;;;;6613947;89;20212;-75
2021/04/30 10:10:37;;;;;;;17.37;9.93;;;11.80;99.90;;;;;;6615244;89;20197;-75
2021/04/30 10:20:37;;;;;;;22.42;11.55;;;13.00;99.90;;;;;;6615870;89;20324;-76
2021/04/30 10:30:50;;;;;;;20.10;11.57;;;13.20;99.90;;;;;;6614703;89;20559;-77
2021/04/30 10:51:13;;;;;;;22.92;11.32;;;14.80;99.90;;;;;;6718804;88;21093;-78
2021/04/30 11:01:33;;;;;;;19.65;11.75;;;15.90;98.90;;;;;;6721053;88;20333;-77
2021/04/30 11:11:38;;;;;;;23.87;12.80;;;15.10;98.60;;;;;;6717965;88;20265;-77
2021/04/30 11:21:47;;;;;;;;;;;15.10;99.90;;;;;;6716934;88;20685;-76
2021/04/30 11:31:48;;;;;;;21.48;11.68;;;17.00;96.90;;;;;;6715183;88;20111;-77
2021/04/30 11:41:50;;;;;;;21.33;11.13;;;18.80;91.60;;;;;;6716561;88;20190;-78
2021/04/30 11:51:51;;;;;;;18.02;10.30;;;19.50;87.60;;;;;;6722405;88;20383;-78
2021/04/30 12:02:00;;;;;;;22.08;12.57;;;19.20;85.00;;;;;;6722556;88;20182;-78
2021/04/30 12:12:24;;;;;;;23.73;13.60;;;17.00;91.20;;;;;;6716547;88;20246;-77
2021/04/30 12:22:25;;;;;;;23.60;11.80;;;18.00;90.60;;;;;;6712818;88;20770;-77
2021/04/30 12:32:28;;;;;;;21.30;11.52;;;19.50;83.70;;;;;;6715263;88;20273;-77
2021/04/30 12:42:28;;;;;;;16.87;10.80;;;19.50;84.60;;;;;;6714372;88;20214;-77
2021/04/30 12:52:29;;;;;;;15.45;10.23;;;19.40;80.20;;;;;;6717145;88;20186;-77
2021/04/30 13:02:32;;;;;;;19.35;10.13;;;18.30;82.10;;;;;;6712834;88;20661;-77
2021/04/30 13:12:34;;;;;;;17.12;10.63;;;17.40;82.30;;;;;;6714484;88;20185;-77
2021/04/30 13:22:35;;;;;;;17.37;11.00;;;16.80;86.80;;;;;;6718374;88;20276;-76
2021/04/30 13:32:35;;;;;;;22.27;10.35;;;16.60;85.10;;;;;;6719695;88;20181;-75
2021/04/30 13:42:38;;;;;;;18.55;10.45;;;17.10;84.20;;;;;;6721350;88;20210;-76
2021/04/30 13:52:39;;;;;;;14.50;8.93;;;17.30;82.90;;;;;;6713815;88;21046;-76
2021/04/30 14:02:40;;;;;;;17.83;10.00;;;18.80;80.20;;;;;;6715557;88;20293;-75
2021/04/30 14:12:42;;;;;;;14.13;9.63;;;18.80;80.30;;;;;;6713809;88;20201;-76
2021/04/30 14:22:43;;;;;;;15.05;9.38;;;19.50;77.90;;;;;;6715607;88;20225;-75
2021/04/30 14:32:43;;;;;;;17.02;9.73;;;19.00;78.00;;;;;;6716974;88;20179;-76
2021/04/30 14:42:44;;;;;;;16.23;9.27;;;18.20;78.80;;;;;;6721718;88;20346;-76
2021/04/30 14:52:45;;;;;;;13.55;8.35;;;17.50;79.20;;;;;;6718177;88;20271;-76
2021/04/30 15:02:46;;;;;;;16.87;8.30;;;18.40;77.70;;;;;;6707644;88;20622;-76
2021/04/30 15:12:46;;;;;;;13.27;7.82;;;18.90;74.60;;;;;;6709978;88;20200;-76
2021/04/30 15:22:47;;;;;;;15.85;8.23;;;18.60;74.20;;;;;;6712925;88;20185;-76
2021/04/30 15:32:48;;;;;;;14.30;8.15;;;17.80;76.00;;;;;;6713455;88;20218;-76
2021/04/30 15:42:49;;;;;;;13.62;8.23;;;17.00;77.60;;;;;;6702934;88;20211;-76
2021/04/30 15:52:49;;;;;;;14.38;8.35;;;16.70;78.00;;;;;;6722711;88;20244;-76
2021/04/30 16:02:50;;;;;;;13.95;8.38;;;16.60;81.90;;;;;;6716587;88;20661;-76
2021/04/30 16:12:51;;;;;;;13.65;8.23;;;16.30;82.10;;;;;;6713738;88;20181;-76
2021/04/30 16:22:51;;;;;;;14.68;8.07;;;15.70;82.80;;;;;;6716633;88;20280;-77
2021/04/30 16:32:54;;;;;;;14.38;8.73;;;15.70;84.30;;;;;;6712036;88;20750;-74
2021/04/30 16:42:54;;;;;;;12.45;7.80;;;15.40;83.10;;;;;;6710732;88;20273;-75
2021/04/30 16:52:55;;;;;;;14.60;8.25;;;15.10;85.60;;;;;;6700789;88;20182;-75
2021/04/30 17:02:55;;;;;;;16.08;7.65;;;15.10;84.40;;;;;;6707222;88;20653;-75
2021/04/30 17:12:56;;;;;;;13.80;7.93;;;14.70;86.30;;;;;;6710515;88;20298;-75
2021/04/30 17:22:56;;;;;;;13.13;7.65;;;14.50;87.20;;;;;;6717762;88;20637;-75
2021/04/30 17:32:57;;;;;;;13.95;7.30;;;14.20;88.70;;;;;;6717670;88;20236;-75
2021/04/30 17:42:59;;;;;;;12.02;7.07;;;14.00;88.30;;;;;;6716990;88;20248;-75
2021/04/30 17:53:01;;;;;;;13.93;7.78;;;13.70;90.10;;;;;;6718781;88;20185;-76
2021/04/30 18:03:03;;;;;;;14.02;8.38;;;13.50;90.90;;;;;;6718582;88;20727;-76
2021/04/30 18:13:07;;;;;;;16.65;8.68;;;13.30;92.50;;;;;;6715684;88;20214;-76
2021/04/30 18:23:07;;;;;;;15.20;8.48;;;13.10;93.50;;;;;;6716094;88;20186;-75
2021/04/30 18:33:08;;;;;;;15.85;8.50;;;13.10;93.70;;;;;;6724563;88;20228;-77
2021/04/30 18:43:09;;;;;;;15.85;8.68;;;12.90;93.80;;;;;;6716568;88;20275;-76
2021/04/30 18:53:10;;;;;;;17.67;8.35;;;12.90;93.90;;;;;;6719208;88;20234;-77
2021/04/30 19:03:11;;;;;;;14.70;8.70;;;12.80;93.90;;;;;;6714907;88;20685;-75
2021/04/30 19:13:12;;;;;;;16.70;9.18;;;12.60;94.70;;;;;;6717705;88;20774;-74
2021/04/30 19:23:12;;;;;;;16.83;8.17;;;12.50;94.90;;;;;;6716343;88;20193;-75
2021/04/30 19:33:15;;;;;;;18.73;9.82;;;12.30;95.40;;;;;;6714993;88;20362;-75
2021/04/30 19:43:15;;;;;;;21.55;11.52;;;12.10;96.60;;;;;;6719228;88;20192;-74
2021/04/30 19:53:16;;;;;;;21.33;12.35;;;11.90;98.30;;;;;;6723287;88;20634;-74
2021/04/30 20:03:16;;;;;;;24.05;13.30;;;11.80;99.40;;;;;;6724504;88;20173;-74
2021/04/30 20:13:18;;;;;;;26.75;13.88;;;11.70;99.90;;;;;;6721031;88;20284;-73
2021/04/30 20:23:18;;;;;;;24.20;13.80;;;11.60;99.90;;;;;;6724332;88;20211;-74
2021/04/30 20:33:19;;;;;;;25.27;14.80;;;11.50;99.90;;;;;;6724742;88;20193;-74
2021/04/30 20:43:20;;;;;;;24.63;14.55;;;11.30;99.90;;;;;;6721814;88;20361;-74
2021/04/30 20:53:21;;;;;;;25.92;14.40;;;11.40;99.90;;;;;;6723685;88;20627;-74
2021/04/30 21:03:22;;;;;;;26.27;15.32;;;11.30;99.90;;;;;;6723685;88;20258;-73
2021/04/30 21:23:42;;;;;;;23.45;13.13;;;11.00;99.90;;;;;;6723261;88;20894;-73
2021/04/30 21:33:42;;;;;;;24.65;12.27;;;11.10;99.90;;;;;;6718891;88;20377;-75
2021/04/30 21:43:43;;;;;;;19.37;12.40;;;11.00;99.90;;;;;;6723278;88;20236;-73
2021/04/30 21:53:43;;;;;;;17.98;11.50;;;11.00;99.90;;;;;;6723662;88;20185;-74
2021/04/30 22:03:45;;;;;;;21.73;11.88;;;10.90;99.90;;;;;;6723834;88;20185;-77
2021/04/30 22:13:45;;;;;;;19.27;12.65;;;10.80;99.90;;;;;;6723964;88;20185;-75
2021/04/30 22:23:46;;;;;;;23.05;14.07;;;10.40;99.90;;;;;;6720159;88;20661;-75
2021/04/30 22:33:47;;;;;;;27.40;16.52;;;10.30;99.90;;;;;;6724836;88;20235;-75
2021/04/30 22:43:47;;;;;;;29.02;17.85;;;10.00;99.90;;;;;;6723122;88;20207;-75
2021/04/30 22:53:48;;;;;;;36.13;21.23;;;9.70;99.90;;;;;;6716781;88;20212;-75
2021/04/30 23:03:48;;;;;;;34.53;21.60;;;9.60;99.90;;;;;;6721676;88;20241;-79
2021/04/30 23:13:49;;;;;;;36.85;20.45;;;9.50;99.90;;;;;;6721693;88;20201;-75
2021/04/30 23:23:49;;;;;;;34.17;20.77;;;9.50;99.90;;;;;;6728931;88;20219;-77
2021/04/30 23:33:50;;;;;;;36.75;21.02;;;9.40;99.90;;;;;;6717225;88;20654;-76
2021/04/30 23:43:50;;;;;;;37.33;21.90;;;9.50;99.90;;;;;;6718599;88;20219;-75
2021/04/30 23:53:51;;;;;;;43.00;24.15;;;9.40;99.90;;;;;;6719486;88;20308;-75
